Main page
METAR-TAF:

METAR-TAF

Airports :

Resia Pass, Italy

latitude: 46-50N, longitude: 010-30E, elevation: 1800 m

Current weather observation

The report was made 1 hour and 12 minutes ago, at 17:55 UTC
Wind 6 kt from the North/Northeast with gusts up to 17 kt
Temperature 3°C
Humidity 65%
Pressure 1019 hPa
Visibility 10 km or more
no clouds below 1500 m and no cumulonimbus

METAR: LIVE 171755Z 03006G17KT CAVOK 03/M03 Q1019 RMK SKC VIS MIN 9999

Time: 20:07 (19:07 UTC)


TAF: missing

Weather observations and forecasts of more than 4000 airports (METAR and TAF reports).

The available stations are represented by yellow and red dots on the map.

Hover mouse over dot to see the name of the station.

Then click to see weather observations and forecasts.

To change the map : click on the green buttons with a black cross to zoom in, on the green button with a dash to zoom out, or on the green arrows for adjacent maps.


METAR-TAF: